sensor_id;sensor_type;location;lat;lon;timestamp;P1;durP1;ratioP1;P2;durP2;ratioP2
76336;SDS011;65157;50.082;18.178;2022-11-20T00:01:11;31.50;;;11.20;;
76336;SDS011;65157;50.082;18.178;2022-11-20T00:03:38;31.90;;;12.40;;
76336;SDS011;65157;50.082;18.178;2022-11-20T00:06:04;30.00;;;12.10;;
76336;SDS011;65157;50.082;18.178;2022-11-20T00:08:32;57.90;;;18.20;;
76336;SDS011;65157;50.082;18.178;2022-11-20T00:11:01;53.70;;;18.80;;
76336;SDS011;65157;50.082;18.178;2022-11-20T00:13:28;30.80;;;12.90;;
76336;SDS011;65157;50.082;18.178;2022-11-20T00:15:57;33.40;;;13.60;;
76336;SDS011;65157;50.082;18.178;2022-11-20T00:18:24;32.10;;;12.90;;
76336;SDS011;65157;50.082;18.178;2022-11-20T00:20:50;32.70;;;13.00;;
76336;SDS011;65157;50.082;18.178;2022-11-20T00:23:15;29.20;;;12.30;;
76336;SDS011;65157;50.082;18.178;2022-11-20T00:25:40;28.10;;;10.80;;
76336;SDS011;65157;50.082;18.178;2022-11-20T00:28:06;37.70;;;14.10;;
76336;SDS011;65157;50.082;18.178;2022-11-20T00:30:31;32.00;;;13.00;;
76336;SDS011;65157;50.082;18.178;2022-11-20T00:32:57;37.40;;;12.70;;
76336;SDS011;65157;50.082;18.178;2022-11-20T00:35:24;37.70;;;13.90;;
76336;SDS011;65157;50.082;18.178;2022-11-20T00:37:49;37.00;;;12.10;;
76336;SDS011;65157;50.082;18.178;2022-11-20T00:40:15;33.60;;;12.80;;
76336;SDS011;65157;50.082;18.178;2022-11-20T00:42:40;38.10;;;13.90;;
76336;SDS011;65157;50.082;18.178;2022-11-20T00:45:06;34.50;;;12.30;;
76336;SDS011;65157;50.082;18.178;2022-11-20T00:47:32;35.30;;;13.10;;
76336;SDS011;65157;50.082;18.178;2022-11-20T00:49:57;50.90;;;17.10;;
76336;SDS011;65157;50.082;18.178;2022-11-20T00:52:23;55.60;;;19.90;;
76336;SDS011;65157;50.082;18.178;2022-11-20T00:54:48;38.90;;;14.70;;
76336;SDS011;65157;50.082;18.178;2022-11-20T00:57:13;32.40;;;12.20;;
76336;SDS011;65157;50.082;18.178;2022-11-20T00:59:39;37.20;;;12.20;;
76336;SDS011;65157;50.082;18.178;2022-11-20T01:02:04;37.90;;;13.40;;
76336;SDS011;65157;50.082;18.178;2022-11-20T01:04:29;32.30;;;12.60;;
76336;SDS011;65157;50.082;18.178;2022-11-20T01:06:55;31.60;;;12.90;;
76336;SDS011;65157;50.082;18.178;2022-11-20T01:09:20;35.40;;;12.70;;
76336;SDS011;65157;50.082;18.178;2022-11-20T01:11:45;37.60;;;13.30;;
76336;SDS011;65157;50.082;18.178;2022-11-20T01:14:12;34.10;;;12.90;;
76336;SDS011;65157;50.082;18.178;2022-11-20T01:16:41;39.20;;;14.00;;
76336;SDS011;65157;50.082;18.178;2022-11-20T01:19:15;38.30;;;13.60;;
76336;SDS011;65157;50.082;18.178;2022-11-20T01:21:43;44.80;;;14.30;;
76336;SDS011;65157;50.082;18.178;2022-11-20T01:24:11;43.10;;;15.30;;
76336;SDS011;65157;50.082;18.178;2022-11-20T01:26:39;36.40;;;13.90;;
76336;SDS011;65157;50.082;18.178;2022-11-20T01:29:06;41.20;;;14.80;;
76336;SDS011;65157;50.082;18.178;2022-11-20T01:31:37;34.50;;;13.60;;
76336;SDS011;65157;50.082;18.178;2022-11-20T01:34:07;33.10;;;11.20;;
76336;SDS011;65157;50.082;18.178;2022-11-20T01:36:35;55.00;;;17.20;;
76336;SDS011;65157;50.082;18.178;2022-11-20T01:39:06;55.20;;;18.60;;
76336;SDS011;65157;50.082;18.178;2022-11-20T01:41:35;38.20;;;12.90;;
76336;SDS011;65157;50.082;18.178;2022-11-20T01:44:22;33.00;;;11.60;;
76336;SDS011;65157;50.082;18.178;2022-11-20T01:47:05;25.10;;;10.40;;
76336;SDS011;65157;50.082;18.178;2022-11-20T01:49:37;29.80;;;10.80;;
76336;SDS011;65157;50.082;18.178;2022-11-20T01:54:44;27.30;;;9.50;;
76336;SDS011;65157;50.082;18.178;2022-11-20T01:57:13;27.10;;;9.80;;
76336;SDS011;65157;50.082;18.178;2022-11-20T01:59:44;29.00;;;11.10;;
76336;SDS011;65157;50.082;18.178;2022-11-20T02:02:19;30.70;;;10.70;;
76336;SDS011;65157;50.082;18.178;2022-11-20T02:04:46;27.30;;;11.10;;
76336;SDS011;65157;50.082;18.178;2022-11-20T02:07:12;26.20;;;10.00;;
76336;SDS011;65157;50.082;18.178;2022-11-20T02:09:39;28.70;;;10.20;;
76336;SDS011;65157;50.082;18.178;2022-11-20T02:12:04;28.10;;;9.90;;
76336;SDS011;65157;50.082;18.178;2022-11-20T02:14:50;23.70;;;9.40;;
76336;SDS011;65157;50.082;18.178;2022-11-20T02:17:16;25.50;;;8.80;;
76336;SDS011;65157;50.082;18.178;2022-11-20T02:19:41;30.70;;;11.40;;
76336;SDS011;65157;50.082;18.178;2022-11-20T02:22:11;25.80;;;9.70;;
76336;SDS011;65157;50.082;18.178;2022-11-20T02:24:42;49.70;;;16.10;;
76336;SDS011;65157;50.082;18.178;2022-11-20T02:32:22;32.30;;;12.40;;
76336;SDS011;65157;50.082;18.178;2022-11-20T02:34:50;30.90;;;10.90;;
76336;SDS011;65157;50.082;18.178;2022-11-20T02:37:16;28.60;;;11.30;;
76336;SDS011;65157;50.082;18.178;2022-11-20T02:39:43;31.50;;;11.10;;
76336;SDS011;65157;50.082;18.178;2022-11-20T02:42:11;28.30;;;10.30;;
76336;SDS011;65157;50.082;18.178;2022-11-20T02:44:36;28.80;;;11.60;;
76336;SDS011;65157;50.082;18.178;2022-11-20T02:47:02;30.40;;;11.60;;
76336;SDS011;65157;50.082;18.178;2022-11-20T02:49:28;30.70;;;11.80;;
76336;SDS011;65157;50.082;18.178;2022-11-20T02:51:53;29.10;;;11.20;;
76336;SDS011;65157;50.082;18.178;2022-11-20T02:54:19;33.20;;;12.20;;
76336;SDS011;65157;50.082;18.178;2022-11-20T02:56:44;31.30;;;11.10;;
76336;SDS011;65157;50.082;18.178;2022-11-20T02:59:09;28.20;;;11.40;;
76336;SDS011;65157;50.082;18.178;2022-11-20T03:01:35;26.50;;;10.00;;
76336;SDS011;65157;50.082;18.178;2022-11-20T03:04:01;26.90;;;10.00;;
76336;SDS011;65157;50.082;18.178;2022-11-20T03:06:27;31.40;;;11.00;;
76336;SDS011;65157;50.082;18.178;2022-11-20T03:08:53;25.70;;;10.40;;
76336;SDS011;65157;50.082;18.178;2022-11-20T03:11:19;30.30;;;10.10;;
76336;SDS011;65157;50.082;18.178;2022-11-20T03:13:45;25.50;;;9.80;;
76336;SDS011;65157;50.082;18.178;2022-11-20T03:16:14;22.10;;;8.10;;
76336;SDS011;65157;50.082;18.178;2022-11-20T03:18:42;32.10;;;10.90;;
76336;SDS011;65157;50.082;18.178;2022-11-20T03:21:08;45.10;;;14.50;;
76336;SDS011;65157;50.082;18.178;2022-11-20T03:23:35;33.00;;;12.70;;
76336;SDS011;65157;50.082;18.178;2022-11-20T03:26:34;23.80;;;9.40;;
76336;SDS011;65157;50.082;18.178;2022-11-20T03:28:54;26.10;;;9.90;;
76336;SDS011;65157;50.082;18.178;2022-11-20T03:33:50;23.40;;;8.70;;
76336;SDS011;65157;50.082;18.178;2022-11-20T03:36:17;25.00;;;8.60;;
76336;SDS011;65157;50.082;18.178;2022-11-20T03:38:43;26.80;;;9.80;;
76336;SDS011;65157;50.082;18.178;2022-11-20T03:41:19;28.40;;;9.90;;
76336;SDS011;65157;50.082;18.178;2022-11-20T03:43:50;22.20;;;9.10;;
76336;SDS011;65157;50.082;18.178;2022-11-20T03:46:20;30.20;;;11.30;;
76336;SDS011;65157;50.082;18.178;2022-11-20T03:48:46;26.00;;;10.50;;
76336;SDS011;65157;50.082;18.178;2022-11-20T03:53:46;26.50;;;9.30;;
76336;SDS011;65157;50.082;18.178;2022-11-20T03:56:13;25.80;;;9.50;;
76336;SDS011;65157;50.082;18.178;2022-11-20T03:58:40;25.70;;;9.00;;
76336;SDS011;65157;50.082;18.178;2022-11-20T04:01:07;23.30;;;9.00;;
76336;SDS011;65157;50.082;18.178;2022-11-20T04:06:34;20.90;;;8.40;;
76336;SDS011;65157;50.082;18.178;2022-11-20T04:08:54;24.80;;;8.30;;
76336;SDS011;65157;50.082;18.178;2022-11-20T04:11:31;41.60;;;12.10;;
76336;SDS011;65157;50.082;18.178;2022-11-20T04:13:59;49.60;;;15.90;;
76336;SDS011;65157;50.082;18.178;2022-11-20T04:16:29;33.30;;;12.70;;
76336;SDS011;65157;50.082;18.178;2022-11-20T04:18:56;26.00;;;9.90;;
76336;SDS011;65157;50.082;18.178;2022-11-20T04:21:23;25.60;;;9.60;;
76336;SDS011;65157;50.082;18.178;2022-11-20T04:23:50;22.80;;;8.50;;
76336;SDS011;65157;50.082;18.178;2022-11-20T04:26:17;23.90;;;8.70;;
76336;SDS011;65157;50.082;18.178;2022-11-20T04:28:44;20.90;;;8.10;;
76336;SDS011;65157;50.082;18.178;2022-11-20T04:31:11;21.60;;;8.10;;
76336;SDS011;65157;50.082;18.178;2022-11-20T04:33:39;25.10;;;8.30;;
76336;SDS011;65157;50.082;18.178;2022-11-20T04:36:06;18.70;;;8.50;;
76336;SDS011;65157;50.082;18.178;2022-11-20T04:38:36;20.30;;;8.30;;
76336;SDS011;65157;50.082;18.178;2022-11-20T04:41:03;20.70;;;8.40;;
76336;SDS011;65157;50.082;18.178;2022-11-20T04:43:31;19.80;;;8.70;;
76336;SDS011;65157;50.082;18.178;2022-11-20T04:45:57;22.30;;;8.50;;
76336;SDS011;65157;50.082;18.178;2022-11-20T04:48:24;23.30;;;8.30;;
76336;SDS011;65157;50.082;18.178;2022-11-20T04:50:51;18.70;;;7.90;;
76336;SDS011;65157;50.082;18.178;2022-11-20T04:53:17;20.40;;;8.10;;
76336;SDS011;65157;50.082;18.178;2022-11-20T04:55:43;20.90;;;7.90;;
76336;SDS011;65157;50.082;18.178;2022-11-20T04:58:08;16.30;;;6.40;;
76336;SDS011;65157;50.082;18.178;2022-11-20T05:00:34;19.90;;;7.70;;
76336;SDS011;65157;50.082;18.178;2022-11-20T05:02:59;27.80;;;10.00;;
76336;SDS011;65157;50.082;18.178;2022-11-20T05:05:24;43.10;;;13.60;;
76336;SDS011;65157;50.082;18.178;2022-11-20T05:07:50;35.60;;;11.90;;
76336;SDS011;65157;50.082;18.178;2022-11-20T05:10:15;23.00;;;10.30;;
76336;SDS011;65157;50.082;18.178;2022-11-20T05:12:40;24.30;;;9.80;;
76336;SDS011;65157;50.082;18.178;2022-11-20T05:15:06;19.60;;;8.30;;
76336;SDS011;65157;50.082;18.178;2022-11-20T05:17:32;19.90;;;7.40;;
76336;SDS011;65157;50.082;18.178;2022-11-20T05:19:57;21.90;;;7.80;;
76336;SDS011;65157;50.082;18.178;2022-11-20T05:22:23;22.30;;;8.60;;
76336;SDS011;65157;50.082;18.178;2022-11-20T05:24:48;25.00;;;9.00;;
76336;SDS011;65157;50.082;18.178;2022-11-20T05:27:13;17.60;;;7.10;;
76336;SDS011;65157;50.082;18.178;2022-11-20T05:29:40;21.70;;;8.30;;
76336;SDS011;65157;50.082;18.178;2022-11-20T05:32:05;20.20;;;8.30;;
76336;SDS011;65157;50.082;18.178;2022-11-20T05:34:34;20.10;;;7.40;;
76336;SDS011;65157;50.082;18.178;2022-11-20T05:36:59;22.20;;;8.70;;
76336;SDS011;65157;50.082;18.178;2022-11-20T05:39:24;17.50;;;7.10;;
76336;SDS011;65157;50.082;18.178;2022-11-20T05:41:50;26.30;;;8.40;;
76336;SDS011;65157;50.082;18.178;2022-11-20T05:44:35;27.90;;;8.80;;
76336;SDS011;65157;50.082;18.178;2022-11-20T05:47:01;24.70;;;8.50;;
76336;SDS011;65157;50.082;18.178;2022-11-20T05:49:26;20.80;;;7.10;;
76336;SDS011;65157;50.082;18.178;2022-11-20T05:51:51;19.90;;;7.60;;
76336;SDS011;65157;50.082;18.178;2022-11-20T05:54:18;28.50;;;9.60;;
76336;SDS011;65157;50.082;18.178;2022-11-20T05:56:43;39.40;;;11.70;;
76336;SDS011;65157;50.082;18.178;2022-11-20T05:59:09;26.00;;;9.70;;
76336;SDS011;65157;50.082;18.178;2022-11-20T06:01:34;23.50;;;8.00;;
76336;SDS011;65157;50.082;18.178;2022-11-20T06:04:01;17.70;;;8.10;;
76336;SDS011;65157;50.082;18.178;2022-11-20T06:06:26;22.20;;;8.10;;
76336;SDS011;65157;50.082;18.178;2022-11-20T06:08:52;21.50;;;7.80;;
76336;SDS011;65157;50.082;18.178;2022-11-20T06:11:17;20.10;;;7.70;;
76336;SDS011;65157;50.082;18.178;2022-11-20T06:13:43;17.40;;;6.90;;
76336;SDS011;65157;50.082;18.178;2022-11-20T06:16:09;21.30;;;7.90;;
76336;SDS011;65157;50.082;18.178;2022-11-20T06:18:36;18.50;;;7.80;;
76336;SDS011;65157;50.082;18.178;2022-11-20T06:21:10;18.70;;;7.40;;
76336;SDS011;65157;50.082;18.178;2022-11-20T06:23:40;22.30;;;8.60;;
76336;SDS011;65157;50.082;18.178;2022-11-20T06:26:07;22.10;;;8.10;;
76336;SDS011;65157;50.082;18.178;2022-11-20T06:31:02;19.90;;;7.30;;
76336;SDS011;65157;50.082;18.178;2022-11-20T06:33:28;22.40;;;8.00;;
76336;SDS011;65157;50.082;18.178;2022-11-20T06:35:57;20.60;;;8.00;;
76336;SDS011;65157;50.082;18.178;2022-11-20T06:38:24;21.70;;;8.10;;
76336;SDS011;65157;50.082;18.178;2022-11-20T06:40:50;22.50;;;8.20;;
76336;SDS011;65157;50.082;18.178;2022-11-20T06:43:16;23.50;;;8.40;;
76336;SDS011;65157;50.082;18.178;2022-11-20T06:45:41;23.60;;;9.00;;
76336;SDS011;65157;50.082;18.178;2022-11-20T06:48:06;37.40;;;12.00;;
76336;SDS011;65157;50.082;18.178;2022-11-20T06:50:32;44.60;;;13.00;;
76336;SDS011;65157;50.082;18.178;2022-11-20T06:53:00;29.00;;;11.00;;
76336;SDS011;65157;50.082;18.178;2022-11-20T06:55:26;25.40;;;9.40;;
76336;SDS011;65157;50.082;18.178;2022-11-20T06:57:51;24.70;;;9.90;;
76336;SDS011;65157;50.082;18.178;2022-11-20T07:00:17;22.10;;;9.20;;
76336;SDS011;65157;50.082;18.178;2022-11-20T07:02:42;26.30;;;9.30;;
76336;SDS011;65157;50.082;18.178;2022-11-20T07:05:08;27.60;;;9.70;;
76336;SDS011;65157;50.082;18.178;2022-11-20T07:07:33;21.40;;;8.20;;
76336;SDS011;65157;50.082;18.178;2022-11-20T07:09:58;27.80;;;11.80;;
76336;SDS011;65157;50.082;18.178;2022-11-20T07:12:24;33.00;;;11.70;;
76336;SDS011;65157;50.082;18.178;2022-11-20T07:14:49;40.90;;;14.10;;
76336;SDS011;65157;50.082;18.178;2022-11-20T07:17:15;37.70;;;14.00;;
76336;SDS011;65157;50.082;18.178;2022-11-20T07:19:40;34.40;;;13.80;;
76336;SDS011;65157;50.082;18.178;2022-11-20T07:22:08;34.80;;;13.20;;
76336;SDS011;65157;50.082;18.178;2022-11-20T07:24:33;35.10;;;13.20;;
76336;SDS011;65157;50.082;18.178;2022-11-20T07:26:59;36.10;;;12.40;;
76336;SDS011;65157;50.082;18.178;2022-11-20T07:29:25;33.40;;;12.70;;
76336;SDS011;65157;50.082;18.178;2022-11-20T07:31:51;32.30;;;12.30;;
76336;SDS011;65157;50.082;18.178;2022-11-20T07:34:17;34.00;;;11.90;;
76336;SDS011;65157;50.082;18.178;2022-11-20T07:36:42;29.60;;;11.20;;
76336;SDS011;65157;50.082;18.178;2022-11-20T07:39:07;28.90;;;10.60;;
76336;SDS011;65157;50.082;18.178;2022-11-20T07:41:33;25.70;;;11.40;;
76336;SDS011;65157;50.082;18.178;2022-11-20T07:43:58;32.90;;;13.40;;
76336;SDS011;65157;50.082;18.178;2022-11-20T07:46:23;58.80;;;19.60;;
76336;SDS011;65157;50.082;18.178;2022-11-20T07:48:49;67.50;;;23.60;;
76336;SDS011;65157;50.082;18.178;2022-11-20T07:51:14;48.00;;;17.70;;
76336;SDS011;65157;50.082;18.178;2022-11-20T07:53:39;44.70;;;14.70;;
76336;SDS011;65157;50.082;18.178;2022-11-20T07:56:05;36.70;;;12.90;;
76336;SDS011;65157;50.082;18.178;2022-11-20T07:58:31;33.90;;;12.20;;
76336;SDS011;65157;50.082;18.178;2022-11-20T08:01:05;29.90;;;12.00;;
76336;SDS011;65157;50.082;18.178;2022-11-20T08:03:32;26.90;;;10.70;;
76336;SDS011;65157;50.082;18.178;2022-11-20T08:05:59;37.00;;;12.80;;
76336;SDS011;65157;50.082;18.178;2022-11-20T08:08:27;32.50;;;13.30;;
76336;SDS011;65157;50.082;18.178;2022-11-20T08:10:53;33.60;;;13.00;;
76336;SDS011;65157;50.082;18.178;2022-11-20T08:13:41;60.30;;;19.40;;
76336;SDS011;65157;50.082;18.178;2022-11-20T08:16:25;54.10;;;18.60;;
76336;SDS011;65157;50.082;18.178;2022-11-20T08:18:50;37.20;;;13.40;;
76336;SDS011;65157;50.082;18.178;2022-11-20T08:21:16;36.60;;;13.90;;
76336;SDS011;65157;50.082;18.178;2022-11-20T08:23:41;37.30;;;12.80;;
76336;SDS011;65157;50.082;18.178;2022-11-20T08:26:07;33.60;;;12.50;;
76336;SDS011;65157;50.082;18.178;2022-11-20T08:28:32;37.60;;;15.40;;
76336;SDS011;65157;50.082;18.178;2022-11-20T08:31:01;37.60;;;14.50;;
76336;SDS011;65157;50.082;18.178;2022-11-20T08:33:27;37.10;;;13.40;;
76336;SDS011;65157;50.082;18.178;2022-11-20T08:35:53;43.20;;;16.30;;
76336;SDS011;65157;50.082;18.178;2022-11-20T08:38:23;39.40;;;16.10;;
76336;SDS011;65157;50.082;18.178;2022-11-20T08:40:48;90.90;;;30.00;;
76336;SDS011;65157;50.082;18.178;2022-11-20T08:43:33;88.40;;;32.60;;
76336;SDS011;65157;50.082;18.178;2022-11-20T08:45:59;58.20;;;19.90;;
76336;SDS011;65157;50.082;18.178;2022-11-20T08:48:24;55.80;;;19.10;;
76336;SDS011;65157;50.082;18.178;2022-11-20T08:50:49;55.20;;;18.70;;
76336;SDS011;65157;50.082;18.178;2022-11-20T08:53:15;49.80;;;19.80;;
76336;SDS011;65157;50.082;18.178;2022-11-20T08:55:40;54.90;;;18.50;;
76336;SDS011;65157;50.082;18.178;2022-11-20T08:58:06;53.60;;;19.50;;
76336;SDS011;65157;50.082;18.178;2022-11-20T09:00:32;52.60;;;19.30;;
76336;SDS011;65157;50.082;18.178;2022-11-20T09:02:59;47.40;;;18.70;;
76336;SDS011;65157;50.082;18.178;2022-11-20T09:05:26;39.60;;;15.20;;
76336;SDS011;65157;50.082;18.178;2022-11-20T09:07:52;30.70;;;12.30;;
76336;SDS011;65157;50.082;18.178;2022-11-20T09:10:20;52.50;;;16.80;;
76336;SDS011;65157;50.082;18.178;2022-11-20T09:12:48;50.50;;;19.20;;
76336;SDS011;65157;50.082;18.178;2022-11-20T09:17:39;34.50;;;13.70;;
76336;SDS011;65157;50.082;18.178;2022-11-20T09:20:04;35.10;;;13.80;;
76336;SDS011;65157;50.082;18.178;2022-11-20T09:22:30;33.60;;;14.00;;
76336;SDS011;65157;50.082;18.178;2022-11-20T09:24:55;30.60;;;12.90;;
76336;SDS011;65157;50.082;18.178;2022-11-20T09:27:21;30.60;;;12.40;;
76336;SDS011;65157;50.082;18.178;2022-11-20T09:29:46;34.90;;;13.60;;
76336;SDS011;65157;50.082;18.178;2022-11-20T09:32:12;37.00;;;14.00;;
76336;SDS011;65157;50.082;18.178;2022-11-20T09:34:37;34.10;;;13.40;;
76336;SDS011;65157;50.082;18.178;2022-11-20T09:37:02;30.00;;;11.60;;
76336;SDS011;65157;50.082;18.178;2022-11-20T09:39:28;36.80;;;13.90;;
76336;SDS011;65157;50.082;18.178;2022-11-20T09:44:38;50.00;;;17.40;;
76336;SDS011;65157;50.082;18.178;2022-11-20T09:55:33;43.40;;;15.20;;
76336;SDS011;65157;50.082;18.178;2022-11-20T09:58:01;42.20;;;17.20;;
76336;SDS011;65157;50.082;18.178;2022-11-20T10:00:40;45.70;;;18.10;;
76336;SDS011;65157;50.082;18.178;2022-11-20T10:03:31;41.70;;;17.40;;
76336;SDS011;65157;50.082;18.178;2022-11-20T10:06:01;44.90;;;17.40;;
76336;SDS011;65157;50.082;18.178;2022-11-20T10:08:39;39.50;;;15.70;;
76336;SDS011;65157;50.082;18.178;2022-11-20T10:16:32;51.30;;;19.40;;
76336;SDS011;65157;50.082;18.178;2022-11-20T10:19:12;44.50;;;19.30;;
76336;SDS011;65157;50.082;18.178;2022-11-20T10:24:43;39.90;;;14.60;;
76336;SDS011;65157;50.082;18.178;2022-11-20T10:27:29;29.40;;;13.00;;
76336;SDS011;65157;50.082;18.178;2022-11-20T10:30:12;32.20;;;14.80;;
76336;SDS011;65157;50.082;18.178;2022-11-20T10:32:40;22.70;;;10.20;;
76336;SDS011;65157;50.082;18.178;2022-11-20T10:37:56;25.10;;;9.90;;
76336;SDS011;65157;50.082;18.178;2022-11-20T10:40:35;31.60;;;11.70;;
76336;SDS011;65157;50.082;18.178;2022-11-20T10:43:23;30.30;;;11.80;;
76336;SDS011;65157;50.082;18.178;2022-11-20T10:46:13;25.10;;;11.00;;
76336;SDS011;65157;50.082;18.178;2022-11-20T10:48:43;23.10;;;10.70;;
76336;SDS011;65157;50.082;18.178;2022-11-20T10:57:03;19.10;;;8.60;;
76336;SDS011;65157;50.082;18.178;2022-11-20T11:02:17;16.20;;;7.90;;
76336;SDS011;65157;50.082;18.178;2022-11-20T11:04:56;16.60;;;7.80;;
76336;SDS011;65157;50.082;18.178;2022-11-20T11:07:23;21.50;;;9.70;;
76336;SDS011;65157;50.082;18.178;2022-11-20T11:09:53;22.20;;;10.60;;
76336;SDS011;65157;50.082;18.178;2022-11-20T11:12:21;14.30;;;6.70;;
76336;SDS011;65157;50.082;18.178;2022-11-20T11:14:53;16.00;;;7.50;;
76336;SDS011;65157;50.082;18.178;2022-11-20T11:20:01;24.80;;;12.40;;
76336;SDS011;65157;50.082;18.178;2022-11-20T11:22:29;19.40;;;9.00;;
76336;SDS011;65157;50.082;18.178;2022-11-20T11:24:57;18.40;;;7.50;;
76336;SDS011;65157;50.082;18.178;2022-11-20T11:27:23;18.60;;;8.20;;
76336;SDS011;65157;50.082;18.178;2022-11-20T11:29:48;12.20;;;5.40;;
76336;SDS011;65157;50.082;18.178;2022-11-20T11:32:17;16.00;;;7.30;;
76336;SDS011;65157;50.082;18.178;2022-11-20T11:34:57;18.40;;;7.30;;
76336;SDS011;65157;50.082;18.178;2022-11-20T11:37:24;14.10;;;6.50;;
76336;SDS011;65157;50.082;18.178;2022-11-20T11:39:53;9.10;;;3.70;;
76336;SDS011;65157;50.082;18.178;2022-11-20T11:42:18;10.20;;;5.00;;
76336;SDS011;65157;50.082;18.178;2022-11-20T11:44:45;10.40;;;5.30;;
76336;SDS011;65157;50.082;18.178;2022-11-20T11:47:32;10.90;;;5.20;;
76336;SDS011;65157;50.082;18.178;2022-11-20T11:50:08;11.00;;;5.50;;
76336;SDS011;65157;50.082;18.178;2022-11-20T11:52:41;7.50;;;4.20;;
76336;SDS011;65157;50.082;18.178;2022-11-20T11:55:14;12.00;;;5.80;;
76336;SDS011;65157;50.082;18.178;2022-11-20T12:00:20;10.00;;;4.90;;
76336;SDS011;65157;50.082;18.178;2022-11-20T12:05:25;11.20;;;5.50;;
76336;SDS011;65157;50.082;18.178;2022-11-20T12:08:05;11.10;;;5.80;;
76336;SDS011;65157;50.082;18.178;2022-11-20T12:13:15;5.70;;;2.80;;
76336;SDS011;65157;50.082;18.178;2022-11-20T12:15:58;10.40;;;5.00;;
76336;SDS011;65157;50.082;18.178;2022-11-20T12:18:24;6.30;;;3.60;;
76336;SDS011;65157;50.082;18.178;2022-11-20T12:23:27;9.70;;;4.80;;
76336;SDS011;65157;50.082;18.178;2022-11-20T12:26:07;11.10;;;5.20;;
76336;SDS011;65157;50.082;18.178;2022-11-20T12:32:05;7.80;;;4.10;;
76336;SDS011;65157;50.082;18.178;2022-11-20T12:34:13;4.60;;;2.30;;
76336;SDS011;65157;50.082;18.178;2022-11-20T12:39:35;7.30;;;3.80;;
76336;SDS011;65157;50.082;18.178;2022-11-20T12:48:06;9.40;;;4.80;;
76336;SDS011;65157;50.082;18.178;2022-11-20T12:51:34;9.70;;;4.80;;
76336;SDS011;65157;50.082;18.178;2022-11-20T13:07:42;14.60;;;7.40;;
76336;SDS011;65157;50.082;18.178;2022-11-20T13:10:27;11.60;;;5.70;;
76336;SDS011;65157;50.082;18.178;2022-11-20T13:13:03;13.10;;;6.00;;
76336;SDS011;65157;50.082;18.178;2022-11-20T13:18:12;15.30;;;7.30;;
76336;SDS011;65157;50.082;18.178;2022-11-20T13:20:43;13.80;;;6.90;;
76336;SDS011;65157;50.082;18.178;2022-11-20T13:23:10;15.10;;;6.90;;
76336;SDS011;65157;50.082;18.178;2022-11-20T13:25:37;15.20;;;7.00;;
76336;SDS011;65157;50.082;18.178;2022-11-20T13:30:35;19.80;;;8.30;;
76336;SDS011;65157;50.082;18.178;2022-11-20T13:33:27;20.70;;;8.50;;
76336;SDS011;65157;50.082;18.178;2022-11-20T13:36:00;20.50;;;9.30;;
76336;SDS011;65157;50.082;18.178;2022-11-20T13:38:27;14.90;;;7.40;;
76336;SDS011;65157;50.082;18.178;2022-11-20T13:40:55;13.90;;;6.40;;
76336;SDS011;65157;50.082;18.178;2022-11-20T13:43:34;13.70;;;6.50;;
76336;SDS011;65157;50.082;18.178;2022-11-20T13:46:03;18.80;;;8.00;;
76336;SDS011;65157;50.082;18.178;2022-11-20T13:48:32;19.90;;;8.80;;
76336;SDS011;65157;50.082;18.178;2022-11-20T13:51:07;22.40;;;9.30;;
76336;SDS011;65157;50.082;18.178;2022-11-20T13:59:28;10.40;;;5.30;;
76336;SDS011;65157;50.082;18.178;2022-11-20T14:02:16;21.20;;;10.10;;
76336;SDS011;65157;50.082;18.178;2022-11-20T14:04:46;25.70;;;10.60;;
76336;SDS011;65157;50.082;18.178;2022-11-20T14:07:13;17.50;;;6.80;;
76336;SDS011;65157;50.082;18.178;2022-11-20T14:09:48;22.00;;;9.40;;
76336;SDS011;65157;50.082;18.178;2022-11-20T14:12:16;19.20;;;9.20;;
76336;SDS011;65157;50.082;18.178;2022-11-20T14:14:48;20.60;;;9.20;;
76336;SDS011;65157;50.082;18.178;2022-11-20T14:17:34;24.40;;;11.60;;
76336;SDS011;65157;50.082;18.178;2022-11-20T14:20:02;11.50;;;5.60;;
76336;SDS011;65157;50.082;18.178;2022-11-20T14:22:31;19.40;;;8.40;;
76336;SDS011;65157;50.082;18.178;2022-11-20T14:27:44;21.60;;;9.50;;
76336;SDS011;65157;50.082;18.178;2022-11-20T14:30:16;29.10;;;10.80;;
76336;SDS011;65157;50.082;18.178;2022-11-20T14:32:45;30.60;;;12.40;;
76336;SDS011;65157;50.082;18.178;2022-11-20T14:35:18;23.30;;;11.10;;
76336;SDS011;65157;50.082;18.178;2022-11-20T14:37:48;23.60;;;10.20;;
76336;SDS011;65157;50.082;18.178;2022-11-20T14:40:23;10.90;;;4.70;;
76336;SDS011;65157;50.082;18.178;2022-11-20T14:43:19;25.30;;;10.30;;
76336;SDS011;65157;50.082;18.178;2022-11-20T14:45:56;10.60;;;4.30;;
76336;SDS011;65157;50.082;18.178;2022-11-20T14:48:33;22.90;;;10.10;;
76336;SDS011;65157;50.082;18.178;2022-11-20T14:51:05;29.10;;;11.40;;
76336;SDS011;65157;50.082;18.178;2022-11-20T14:53:30;32.20;;;12.80;;
76336;SDS011;65157;50.082;18.178;2022-11-20T14:55:57;16.50;;;7.40;;
76336;SDS011;65157;50.082;18.178;2022-11-20T14:58:25;16.80;;;7.80;;
76336;SDS011;65157;50.082;18.178;2022-11-20T15:01:02;13.20;;;5.70;;
76336;SDS011;65157;50.082;18.178;2022-11-20T15:03:30;18.60;;;8.20;;
76336;SDS011;65157;50.082;18.178;2022-11-20T15:06:00;19.30;;;8.70;;
76336;SDS011;65157;50.082;18.178;2022-11-20T15:08:27;20.60;;;9.10;;
76336;SDS011;65157;50.082;18.178;2022-11-20T15:10:53;20.90;;;9.20;;
76336;SDS011;65157;50.082;18.178;2022-11-20T15:13:36;24.50;;;10.40;;
76336;SDS011;65157;50.082;18.178;2022-11-20T15:16:04;21.40;;;9.90;;
76336;SDS011;65157;50.082;18.178;2022-11-20T15:18:39;21.00;;;9.80;;
76336;SDS011;65157;50.082;18.178;2022-11-20T15:21:10;16.90;;;7.90;;
76336;SDS011;65157;50.082;18.178;2022-11-20T15:23:37;20.30;;;9.60;;
76336;SDS011;65157;50.082;18.178;2022-11-20T15:26:06;15.00;;;7.00;;
76336;SDS011;65157;50.082;18.178;2022-11-20T15:28:35;23.20;;;11.70;;
76336;SDS011;65157;50.082;18.178;2022-11-20T15:31:04;21.40;;;10.60;;
76336;SDS011;65157;50.082;18.178;2022-11-20T15:33:33;26.10;;;10.90;;
76336;SDS011;65157;50.082;18.178;2022-11-20T15:35:59;27.80;;;11.40;;
76336;SDS011;65157;50.082;18.178;2022-11-20T15:38:24;29.00;;;11.30;;
76336;SDS011;65157;50.082;18.178;2022-11-20T15:40:50;24.70;;;10.50;;
76336;SDS011;65157;50.082;18.178;2022-11-20T15:43:16;40.30;;;15.60;;
76336;SDS011;65157;50.082;18.178;2022-11-20T15:48:16;21.20;;;9.60;;
76336;SDS011;65157;50.082;18.178;2022-11-20T15:53:15;33.20;;;12.00;;
76336;SDS011;65157;50.082;18.178;2022-11-20T15:55:41;19.30;;;8.10;;
76336;SDS011;65157;50.082;18.178;2022-11-20T15:58:06;11.30;;;5.30;;
76336;SDS011;65157;50.082;18.178;2022-11-20T16:00:31;14.50;;;7.00;;
76336;SDS011;65157;50.082;18.178;2022-11-20T16:02:57;16.30;;;6.80;;
76336;SDS011;65157;50.082;18.178;2022-11-20T16:05:22;19.60;;;9.20;;
76336;SDS011;65157;50.082;18.178;2022-11-20T16:07:51;17.60;;;8.50;;
76336;SDS011;65157;50.082;18.178;2022-11-20T16:10:16;20.70;;;9.10;;
76336;SDS011;65157;50.082;18.178;2022-11-20T16:12:42;19.20;;;9.10;;
76336;SDS011;65157;50.082;18.178;2022-11-20T16:15:26;19.90;;;8.70;;